Archival Weather

Sydney Intl

Sydney, Australia (YSSY)

Report from: Wednesday, September 20, 2023 4:00 AM AEST
Current time: Tuesday, July 16, 2024 8:13 PM AEST

Current weather – Weather history – Daily summaries
Weather forecast

Temperature23.0°C (73.4°F)
Dew point3.0°C (37.4°F)
Winds 10 kts (5.1 m/s, 11.5 mph) North-Northwest (340°)
Visibility6.2 mi. (10 km)
Clouds Sky clear
Altimeter29.80 in.Hg (1009 mB)
Relative humidity27 %
Density altitude1,189 ft. (362 m)
Remarks Fully automated report
No clouds detected
Flight conditions Visual Meteorological Conditions
Raw dataYSSY 191800Z AUTO 34010KT 9999 // NCD 23/03 Q1009 RF00.0/000.0
An error has occurred. This application may no longer respond until reloaded. Reload 🗙